sensor_id;sensor_type;location;lat;lon;timestamp;P1;durP1;ratioP1;P2;durP2;ratioP2
55527;SDS011;52818;43.308;21.916;2023-02-22T00:00:27;36.60;;;23.10;;
55527;SDS011;52818;43.308;21.916;2023-02-22T00:02:27;41.30;;;26.30;;
55527;SDS011;52818;43.308;21.916;2023-02-22T00:06:27;39.70;;;26.10;;
55527;SDS011;52818;43.308;21.916;2023-02-22T00:08:29;40.50;;;;;
55527;SDS011;52818;43.308;21.916;2023-02-22T00:10:28;38.40;;;24.70;;
55527;SDS011;52818;43.308;21.916;2023-02-22T00:12:32;37.50;;;24.80;;
55527;SDS011;52818;43.308;21.916;2023-02-22T00:14:28;37.80;;;24.20;;
55527;SDS011;52818;43.308;21.916;2023-02-22T00:18:28;34.30;;;22.90;;
55527;SDS011;52818;43.308;21.916;2023-02-22T00:20:31;35.80;;;22.20;;
55527;SDS011;52818;43.308;21.916;2023-02-22T00:22:37;37.60;;;25.50;;
55527;SDS011;52818;43.308;21.916;2023-02-22T00:24:31;37.00;;;24.30;;
55527;SDS011;52818;43.308;21.916;2023-02-22T00:26:34;35.60;;;24.10;;
55527;SDS011;52818;43.308;21.916;2023-02-22T00:28:31;34.10;;;22.80;;
55527;SDS011;52818;43.308;21.916;2023-02-22T00:30:29;32.20;;;20.00;;
55527;SDS011;52818;43.308;21.916;2023-02-22T00:32:28;30.90;;;21.90;;
55527;SDS011;52818;43.308;21.916;2023-02-22T00:34:34;29.00;;;19.90;;
55527;SDS011;52818;43.308;21.916;2023-02-22T00:36:32;28.60;;;19.30;;
55527;SDS011;52818;43.308;21.916;2023-02-22T00:38:31;28.40;;;19.20;;
55527;SDS011;52818;43.308;21.916;2023-02-22T00:40:30;30.80;;;20.90;;
55527;SDS011;52818;43.308;21.916;2023-02-22T00:42:29;;;;20.80;;
55527;SDS011;52818;43.308;21.916;2023-02-22T00:44:29;34.80;;;22.70;;
55527;SDS011;52818;43.308;21.916;2023-02-22T00:46:29;32.40;;;20.90;;
55527;SDS011;52818;43.308;21.916;2023-02-22T00:48:32;30.30;;;19.60;;
55527;SDS011;52818;43.308;21.916;2023-02-22T00:50:39;29.30;;;19.70;;
55527;SDS011;52818;43.308;21.916;2023-02-22T00:52:34;31.70;;;21.50;;
55527;SDS011;52818;43.308;21.916;2023-02-22T00:54:30;39.60;;;25.20;;
55527;SDS011;52818;43.308;21.916;2023-02-22T00:56:34;27.80;;;20.60;;
55527;SDS011;52818;43.308;21.916;2023-02-22T00:58:30;28.70;;;20.20;;
55527;SDS011;52818;43.308;21.916;2023-02-22T01:00:31;28.60;;;19.10;;
55527;SDS011;52818;43.308;21.916;2023-02-22T01:02:33;24.90;;;16.90;;
55527;SDS011;52818;43.308;21.916;2023-02-22T01:04:30;22.40;;;15.30;;
55527;SDS011;52818;43.308;21.916;2023-02-22T01:06:30;24.50;;;16.80;;
55527;SDS011;52818;43.308;21.916;2023-02-22T01:08:31;27.00;;;18.30;;
55527;SDS011;52818;43.308;21.916;2023-02-22T01:10:36;27.60;;;19.30;;
55527;SDS011;52818;43.308;21.916;2023-02-22T01:12:33;29.50;;;20.50;;
55527;SDS011;52818;43.308;21.916;2023-02-22T01:14:31;31.60;;;20.60;;
55527;SDS011;52818;43.308;21.916;2023-02-22T01:16:35;31.00;;;20.40;;
55527;SDS011;52818;43.308;21.916;2023-02-22T01:18:33;29.80;;;20.10;;
55527;SDS011;52818;43.308;21.916;2023-02-22T01:20:33;27.90;;;19.90;;
55527;SDS011;52818;43.308;21.916;2023-02-22T01:22:33;28.50;;;19.80;;
55527;SDS011;52818;43.308;21.916;2023-02-22T01:24:36;29.20;;;19.60;;
55527;SDS011;52818;43.308;21.916;2023-02-22T01:26:38;31.70;;;21.40;;
55527;SDS011;52818;43.308;21.916;2023-02-22T01:28:36;34.90;;;23.90;;
55527;SDS011;52818;43.308;21.916;2023-02-22T01:32:32;31.80;;;22.00;;
55527;SDS011;52818;43.308;21.916;2023-02-22T01:34:32;24.90;;;17.40;;
55527;SDS011;52818;43.308;21.916;2023-02-22T01:36:32;27.20;;;17.30;;
55527;SDS011;52818;43.308;21.916;2023-02-22T01:38:32;23.40;;;15.90;;
55527;SDS011;52818;43.308;21.916;2023-02-22T01:40:33;23.70;;;16.10;;
55527;SDS011;52818;43.308;21.916;2023-02-22T01:42:32;28.70;;;18.40;;
55527;SDS011;52818;43.308;21.916;2023-02-22T01:44:33;25.50;;;17.80;;
55527;SDS011;52818;43.308;21.916;2023-02-22T01:46:32;26.20;;;17.60;;
55527;SDS011;52818;43.308;21.916;2023-02-22T01:48:37;24.80;;;15.50;;
55527;SDS011;52818;43.308;21.916;2023-02-22T01:50:34;21.40;;;14.90;;
55527;SDS011;52818;43.308;21.916;2023-02-22T01:52:33;25.40;;;16.70;;
55527;SDS011;52818;43.308;21.916;2023-02-22T01:54:34;23.90;;;16.40;;
55527;SDS011;52818;43.308;21.916;2023-02-22T01:56:33;26.70;;;17.00;;
55527;SDS011;52818;43.308;21.916;2023-02-22T01:58:37;27.60;;;17.30;;
55527;SDS011;52818;43.308;21.916;2023-02-22T02:00:38;26.00;;;16.80;;
55527;SDS011;52818;43.308;21.916;2023-02-22T02:02:33;26.30;;;17.20;;
55527;SDS011;52818;43.308;21.916;2023-02-22T02:04:33;30.40;;;19.60;;
55527;SDS011;52818;43.308;21.916;2023-02-22T02:06:35;28.20;;;17.50;;
55527;SDS011;52818;43.308;21.916;2023-02-22T02:08:40;28.40;;;20.00;;
55527;SDS011;52818;43.308;21.916;2023-02-22T02:10:34;30.40;;;20.10;;
55527;SDS011;52818;43.308;21.916;2023-02-22T02:12:34;31.30;;;21.10;;
55527;SDS011;52818;43.308;21.916;2023-02-22T02:14:35;32.20;;;21.00;;
55527;SDS011;52818;43.308;21.916;2023-02-22T02:16:37;37.10;;;23.40;;
55527;SDS011;52818;43.308;21.916;2023-02-22T02:18:34;40.80;;;25.60;;
55527;SDS011;52818;43.308;21.916;2023-02-22T02:20:37;43.20;;;28.30;;
55527;SDS011;52818;43.308;21.916;2023-02-22T02:22:37;35.70;;;23.70;;
55527;SDS011;52818;43.308;21.916;2023-02-22T02:24:40;36.90;;;23.40;;
55527;SDS011;52818;43.308;21.916;2023-02-22T02:27:00;39.10;;;25.60;;
55527;SDS011;52818;43.308;21.916;2023-02-22T02:30:40;38.90;;;26.80;;
55527;SDS011;52818;43.308;21.916;2023-02-22T02:32:38;42.10;;;26.90;;
55527;SDS011;52818;43.308;21.916;2023-02-22T02:34:36;39.10;;;26.70;;
55527;SDS011;52818;43.308;21.916;2023-02-22T02:36:41;38.10;;;25.50;;
55527;SDS011;52818;43.308;21.916;2023-02-22T02:38:37;37.00;;;23.90;;
55527;SDS011;52818;43.308;21.916;2023-02-22T02:40:40;30.10;;;20.70;;
55527;SDS011;52818;43.308;21.916;2023-02-22T02:42:37;26.30;;;18.50;;
55527;SDS011;52818;43.308;21.916;2023-02-22T02:44:43;25.50;;;17.50;;
55527;SDS011;52818;43.308;21.916;2023-02-22T02:46:36;25.40;;;16.70;;
55527;SDS011;52818;43.308;21.916;2023-02-22T02:48:36;24.00;;;15.80;;
55527;SDS011;52818;43.308;21.916;2023-02-22T02:50:36;24.80;;;16.60;;
55527;SDS011;52818;43.308;21.916;2023-02-22T02:52:39;25.00;;;17.40;;
55527;SDS011;52818;43.308;21.916;2023-02-22T02:54:36;28.30;;;19.90;;
55527;SDS011;52818;43.308;21.916;2023-02-22T02:56:36;25.10;;;17.10;;
55527;SDS011;52818;43.308;21.916;2023-02-22T02:58:41;26.50;;;17.90;;
55527;SDS011;52818;43.308;21.916;2023-02-22T03:00:37;21.80;;;14.10;;
55527;SDS011;52818;43.308;21.916;2023-02-22T03:02:38;24.60;;;15.80;;
55527;SDS011;52818;43.308;21.916;2023-02-22T03:04:40;21.50;;;14.70;;
55527;SDS011;52818;43.308;21.916;2023-02-22T03:06:41;;;;13.30;;
55527;SDS011;52818;43.308;21.916;2023-02-22T03:10:40;16.90;;;11.90;;
55527;SDS011;52818;43.308;21.916;2023-02-22T03:12:38;17.80;;;12.30;;
55527;SDS011;52818;43.308;21.916;2023-02-22T03:14:37;;;;11.70;;
55527;SDS011;52818;43.308;21.916;2023-02-22T03:16:38;17.10;;;11.60;;
55527;SDS011;52818;43.308;21.916;2023-02-22T03:18:39;20.90;;;13.10;;
55527;SDS011;52818;43.308;21.916;2023-02-22T03:20:42;24.10;;;14.00;;
55527;SDS011;52818;43.308;21.916;2023-02-22T03:22:38;19.70;;;13.80;;
55527;SDS011;52818;43.308;21.916;2023-02-22T03:24:41;22.80;;;14.80;;
55527;SDS011;52818;43.308;21.916;2023-02-22T03:28:40;23.20;;;14.70;;
55527;SDS011;52818;43.308;21.916;2023-02-22T03:30:39;27.40;;;16.40;;
55527;SDS011;52818;43.308;21.916;2023-02-22T03:34:47;27.20;;;17.30;;
55527;SDS011;52818;43.308;21.916;2023-02-22T03:36:39;27.00;;;17.60;;
55527;SDS011;52818;43.308;21.916;2023-02-22T03:38:38;28.60;;;18.90;;
55527;SDS011;52818;43.308;21.916;2023-02-22T03:48:41;36.10;;;23.50;;
55527;SDS011;52818;43.308;21.916;2023-02-22T03:52:42;33.30;;;22.00;;
55527;SDS011;52818;43.308;21.916;2023-02-22T03:54:40;34.00;;;22.10;;
55527;SDS011;52818;43.308;21.916;2023-02-22T03:58:41;60.60;;;34.50;;
55527;SDS011;52818;43.308;21.916;2023-02-22T04:02:40;42.30;;;26.40;;
55527;SDS011;52818;43.308;21.916;2023-02-22T04:04:42;32.50;;;20.60;;
55527;SDS011;52818;43.308;21.916;2023-02-22T04:08:39;24.10;;;15.50;;
55527;SDS011;52818;43.308;21.916;2023-02-22T04:14:42;16.30;;;11.60;;
55527;SDS011;52818;43.308;21.916;2023-02-22T04:16:40;20.10;;;12.80;;
55527;SDS011;52818;43.308;21.916;2023-02-22T04:18:46;17.20;;;14.50;;
55527;SDS011;52818;43.308;21.916;2023-02-22T04:28:49;35.00;;;25.70;;
55527;SDS011;52818;43.308;21.916;2023-02-22T04:30:40;29.60;;;22.40;;
55527;SDS011;52818;43.308;21.916;2023-02-22T04:32:40;30.70;;;23.00;;
55527;SDS011;52818;43.308;21.916;2023-02-22T04:34:40;36.50;;;27.30;;
55527;SDS011;52818;43.308;21.916;2023-02-22T04:36:43;40.00;;;30.60;;
55527;SDS011;52818;43.308;21.916;2023-02-22T04:38:41;36.60;;;27.20;;
55527;SDS011;52818;43.308;21.916;2023-02-22T04:40:41;25.70;;;18.80;;
55527;SDS011;52818;43.308;21.916;2023-02-22T04:42:46;21.20;;;14.90;;
55527;SDS011;52818;43.308;21.916;2023-02-22T04:44:41;17.90;;;13.60;;
55527;SDS011;52818;43.308;21.916;2023-02-22T04:46:41;21.00;;;14.10;;
55527;SDS011;52818;43.308;21.916;2023-02-22T04:48:49;22.00;;;14.00;;
55527;SDS011;52818;43.308;21.916;2023-02-22T04:50:41;18.70;;;12.80;;
55527;SDS011;52818;43.308;21.916;2023-02-22T04:52:41;18.80;;;12.30;;
55527;SDS011;52818;43.308;21.916;2023-02-22T04:54:49;18.30;;;12.40;;
55527;SDS011;52818;43.308;21.916;2023-02-22T04:56:41;18.00;;;12.80;;
55527;SDS011;52818;43.308;21.916;2023-02-22T04:58:41;21.20;;;14.80;;
55527;SDS011;52818;43.308;21.916;2023-02-22T05:00:42;22.80;;;14.40;;
55527;SDS011;52818;43.308;21.916;2023-02-22T05:02:42;24.80;;;16.00;;
55527;SDS011;52818;43.308;21.916;2023-02-22T05:04:42;31.60;;;21.10;;
55527;SDS011;52818;43.308;21.916;2023-02-22T05:06:47;37.50;;;23.40;;
55527;SDS011;52818;43.308;21.916;2023-02-22T05:08:42;38.30;;;24.10;;
55527;SDS011;52818;43.308;21.916;2023-02-22T05:10:42;39.60;;;26.70;;
55527;SDS011;52818;43.308;21.916;2023-02-22T05:12:42;43.10;;;28.10;;
55527;SDS011;52818;43.308;21.916;2023-02-22T05:14:43;48.70;;;31.60;;
55527;SDS011;52818;43.308;21.916;2023-02-22T05:16:42;49.70;;;33.10;;
55527;SDS011;52818;43.308;21.916;2023-02-22T05:18:46;54.20;;;32.90;;
55527;SDS011;52818;43.308;21.916;2023-02-22T05:20:42;46.00;;;29.50;;
55527;SDS011;52818;43.308;21.916;2023-02-22T05:22:43;48.00;;;28.60;;
55527;SDS011;52818;43.308;21.916;2023-02-22T05:24:43;49.90;;;29.60;;
55527;SDS011;52818;43.308;21.916;2023-02-22T05:26:43;44.00;;;28.30;;
55527;SDS011;52818;43.308;21.916;2023-02-22T05:28:48;46.40;;;30.90;;
55527;SDS011;52818;43.308;21.916;2023-02-22T05:30:43;48.10;;;30.80;;
55527;SDS011;52818;43.308;21.916;2023-02-22T05:32:43;46.00;;;29.60;;
55527;SDS011;52818;43.308;21.916;2023-02-22T05:34:43;50.50;;;29.90;;
55527;SDS011;52818;43.308;21.916;2023-02-22T05:36:43;45.80;;;29.40;;
55527;SDS011;52818;43.308;21.916;2023-02-22T05:38:53;47.20;;;30.00;;
55527;SDS011;52818;43.308;21.916;2023-02-22T05:40:43;48.80;;;31.50;;
55527;SDS011;52818;43.308;21.916;2023-02-22T05:42:49;46.40;;;30.50;;
55527;SDS011;52818;43.308;21.916;2023-02-22T05:44:54;47.60;;;30.00;;
55527;SDS011;52818;43.308;21.916;2023-02-22T05:46:45;46.10;;;30.60;;
55527;SDS011;52818;43.308;21.916;2023-02-22T05:48:44;46.50;;;29.80;;
55527;SDS011;52818;43.308;21.916;2023-02-22T05:50:44;37.00;;;25.70;;
55527;SDS011;52818;43.308;21.916;2023-02-22T05:52:44;40.40;;;27.40;;
55527;SDS011;52818;43.308;21.916;2023-02-22T05:54:44;41.60;;;26.80;;
55527;SDS011;52818;43.308;21.916;2023-02-22T05:56:48;37.60;;;25.80;;
55527;SDS011;52818;43.308;21.916;2023-02-22T05:58:44;36.70;;;27.20;;
55527;SDS011;52818;43.308;21.916;2023-02-22T06:00:44;42.00;;;30.40;;
55527;SDS011;52818;43.308;21.916;2023-02-22T06:02:52;39.00;;;28.90;;
55527;SDS011;52818;43.308;21.916;2023-02-22T06:04:47;49.50;;;33.90;;
55527;SDS011;52818;43.308;21.916;2023-02-22T06:06:45;49.90;;;33.70;;
55527;SDS011;52818;43.308;21.916;2023-02-22T06:08:46;52.20;;;35.60;;
55527;SDS011;52818;43.308;21.916;2023-02-22T06:10:45;54.90;;;37.60;;
55527;SDS011;52818;43.308;21.916;2023-02-22T06:14:45;57.30;;;37.40;;
55527;SDS011;52818;43.308;21.916;2023-02-22T06:16:50;56.50;;;38.90;;
55527;SDS011;52818;43.308;21.916;2023-02-22T06:18:53;59.90;;;39.90;;
55527;SDS011;52818;43.308;21.916;2023-02-22T06:20:45;65.80;;;43.80;;
55527;SDS011;52818;43.308;21.916;2023-02-22T06:22:45;64.50;;;44.40;;
55527;SDS011;52818;43.308;21.916;2023-02-22T06:24:45;75.00;;;48.00;;
55527;SDS011;52818;43.308;21.916;2023-02-22T06:26:53;71.00;;;46.30;;
55527;SDS011;52818;43.308;21.916;2023-02-22T06:28:46;66.90;;;44.60;;
55527;SDS011;52818;43.308;21.916;2023-02-22T06:30:46;73.20;;;44.00;;
55527;SDS011;52818;43.308;21.916;2023-02-22T06:32:49;67.60;;;42.80;;
55527;SDS011;52818;43.308;21.916;2023-02-22T06:34:51;61.30;;;41.00;;
55527;SDS011;52818;43.308;21.916;2023-02-22T06:36:46;57.50;;;39.10;;
55527;SDS011;52818;43.308;21.916;2023-02-22T06:38:46;60.00;;;40.10;;
55527;SDS011;52818;43.308;21.916;2023-02-22T06:40:56;64.00;;;39.70;;
55527;SDS011;52818;43.308;21.916;2023-02-22T06:42:46;64.30;;;38.70;;
55527;SDS011;52818;43.308;21.916;2023-02-22T06:44:49;65.20;;;40.30;;
55527;SDS011;52818;43.308;21.916;2023-02-22T06:46:47;61.70;;;38.10;;
55527;SDS011;52818;43.308;21.916;2023-02-22T06:48:51;55.80;;;34.70;;
55527;SDS011;52818;43.308;21.916;2023-02-22T06:50:47;54.00;;;;;
55527;SDS011;52818;43.308;21.916;2023-02-22T06:52:47;119.10;;;70.60;;
55527;SDS011;52818;43.308;21.916;2023-02-22T06:54:51;59.60;;;38.10;;
55527;SDS011;52818;43.308;21.916;2023-02-22T06:56:49;58.40;;;35.70;;
55527;SDS011;52818;43.308;21.916;2023-02-22T07:02:50;57.60;;;35.70;;
55527;SDS011;52818;43.308;21.916;2023-02-22T07:04:52;59.50;;;39.20;;
55527;SDS011;52818;43.308;21.916;2023-02-22T07:06:48;67.60;;;42.40;;
55527;SDS011;52818;43.308;21.916;2023-02-22T07:08:47;65.20;;;42.60;;
55527;SDS011;52818;43.308;21.916;2023-02-22T07:10:47;72.10;;;47.30;;
55527;SDS011;52818;43.308;21.916;2023-02-22T07:12:48;73.70;;;47.90;;
55527;SDS011;52818;43.308;21.916;2023-02-22T07:14:48;80.00;;;51.30;;
55527;SDS011;52818;43.308;21.916;2023-02-22T07:16:48;80.20;;;49.70;;
55527;SDS011;52818;43.308;21.916;2023-02-22T07:18:51;80.10;;;50.20;;
55527;SDS011;52818;43.308;21.916;2023-02-22T07:20:58;77.90;;;48.90;;
55527;SDS011;52818;43.308;21.916;2023-02-22T07:22:53;73.00;;;47.70;;
55527;SDS011;52818;43.308;21.916;2023-02-22T07:24:58;72.30;;;47.40;;
55527;SDS011;52818;43.308;21.916;2023-02-22T07:26:53;72.10;;;46.50;;
55527;SDS011;52818;43.308;21.916;2023-02-22T07:28:50;76.50;;;49.40;;
55527;SDS011;52818;43.308;21.916;2023-02-22T07:30:54;74.20;;;51.50;;
55527;SDS011;52818;43.308;21.916;2023-02-22T07:32:57;62.20;;;40.60;;
55527;SDS011;52818;43.308;21.916;2023-02-22T07:38:54;58.10;;;38.40;;
55527;SDS011;52818;43.308;21.916;2023-02-22T07:40:51;61.30;;;38.90;;
55527;SDS011;52818;43.308;21.916;2023-02-22T07:42:50;61.40;;;39.20;;
55527;SDS011;52818;43.308;21.916;2023-02-22T07:44:49;68.50;;;45.40;;
55527;SDS011;52818;43.308;21.916;2023-02-22T07:46:49;59.70;;;38.50;;
55527;SDS011;52818;43.308;21.916;2023-02-22T07:48:49;64.20;;;40.30;;
55527;SDS011;52818;43.308;21.916;2023-02-22T07:50:50;60.70;;;38.30;;
55527;SDS011;52818;43.308;21.916;2023-02-22T07:52:52;64.00;;;41.70;;
55527;SDS011;52818;43.308;21.916;2023-02-22T07:54:51;58.20;;;39.20;;
55527;SDS011;52818;43.308;21.916;2023-02-22T07:56:56;60.70;;;39.50;;
55527;SDS011;52818;43.308;21.916;2023-02-22T07:58:54;52.90;;;36.70;;
55527;SDS011;52818;43.308;21.916;2023-02-22T08:00:54;56.50;;;38.60;;
55527;SDS011;52818;43.308;21.916;2023-02-22T08:02:53;56.90;;;38.80;;
55527;SDS011;52818;43.308;21.916;2023-02-22T08:04:54;52.10;;;36.10;;
55527;SDS011;52818;43.308;21.916;2023-02-22T08:06:54;57.60;;;39.10;;
55527;SDS011;52818;43.308;21.916;2023-02-22T08:08:58;55.50;;;37.00;;
55527;SDS011;52818;43.308;21.916;2023-02-22T08:12:56;53.50;;;35.60;;
55527;SDS011;52818;43.308;21.916;2023-02-22T08:14:50;49.90;;;34.50;;
55527;SDS011;52818;43.308;21.916;2023-02-22T08:16:50;48.40;;;33.30;;
55527;SDS011;52818;43.308;21.916;2023-02-22T08:18:52;39.90;;;27.60;;
55527;SDS011;52818;43.308;21.916;2023-02-22T08:20:51;41.40;;;29.10;;
55527;SDS011;52818;43.308;21.916;2023-02-22T08:22:51;39.10;;;28.00;;
55527;SDS011;52818;43.308;21.916;2023-02-22T08:24:55;37.60;;;27.40;;
55527;SDS011;52818;43.308;21.916;2023-02-22T08:26:51;40.20;;;27.50;;
55527;SDS011;52818;43.308;21.916;2023-02-22T08:28:52;42.90;;;31.30;;
55527;SDS011;52818;43.308;21.916;2023-02-22T08:30:51;43.90;;;30.70;;
55527;SDS011;52818;43.308;21.916;2023-02-22T08:32:51;37.50;;;27.30;;
55527;SDS011;52818;43.308;21.916;2023-02-22T08:34:51;38.50;;;26.20;;
55527;SDS011;52818;43.308;21.916;2023-02-22T08:37:24;38.30;;;27.90;;
55527;SDS011;52818;43.308;21.916;2023-02-22T08:39:25;37.70;;;25.90;;
55527;SDS011;52818;43.308;21.916;2023-02-22T08:41:25;42.80;;;29.30;;
55527;SDS011;52818;43.308;21.916;2023-02-22T08:43:28;42.40;;;27.20;;
55527;SDS011;52818;43.308;21.916;2023-02-22T08:45:25;36.30;;;25.20;;
55527;SDS011;52818;43.308;21.916;2023-02-22T08:51:27;33.00;;;23.40;;
55527;SDS011;52818;43.308;21.916;2023-02-22T09:03:30;35.80;;;22.60;;
55527;SDS011;52818;43.308;21.916;2023-02-22T09:05:30;32.20;;;20.40;;
55527;SDS011;52818;43.308;21.916;2023-02-22T09:09:33;30.10;;;21.00;;
55527;SDS011;52818;43.308;21.916;2023-02-22T09:11:28;29.30;;;20.20;;
55527;SDS011;52818;43.308;21.916;2023-02-22T09:13:31;32.40;;;20.70;;
55527;SDS011;52818;43.308;21.916;2023-02-22T09:15:31;34.80;;;20.90;;
55527;SDS011;52818;43.308;21.916;2023-02-22T09:17:33;27.70;;;18.00;;
55527;SDS011;52818;43.308;21.916;2023-02-22T09:19:24;26.80;;;18.20;;
55527;SDS011;52818;43.308;21.916;2023-02-22T09:21:25;28.40;;;18.50;;
55527;SDS011;52818;43.308;21.916;2023-02-22T09:23:24;26.50;;;18.80;;
55527;SDS011;52818;43.308;21.916;2023-02-22T09:25:28;27.70;;;18.30;;
55527;SDS011;52818;43.308;21.916;2023-02-22T09:27:24;28.20;;;18.90;;
55527;SDS011;52818;43.308;21.916;2023-02-22T09:29:26;29.90;;;18.70;;
55527;SDS011;52818;43.308;21.916;2023-02-22T09:31:27;30.10;;;19.70;;
55527;SDS011;52818;43.308;21.916;2023-02-22T09:33:29;29.00;;;19.80;;
55527;SDS011;52818;43.308;21.916;2023-02-22T09:35:28;27.50;;;18.80;;
55527;SDS011;52818;43.308;21.916;2023-02-22T09:41:35;31.20;;;20.10;;
55527;SDS011;52818;43.308;21.916;2023-02-22T09:43:32;31.80;;;21.10;;
55527;SDS011;52818;43.308;21.916;2023-02-22T09:45:31;28.60;;;19.00;;
55527;SDS011;52818;43.308;21.916;2023-02-22T09:47:32;31.90;;;20.50;;
55527;SDS011;52818;43.308;21.916;2023-02-22T09:49:30;28.70;;;18.70;;
55527;SDS011;52818;43.308;21.916;2023-02-22T09:51:26;25.30;;;17.80;;
55527;SDS011;52818;43.308;21.916;2023-02-22T09:53:31;25.90;;;;;
55527;SDS011;52818;43.308;21.916;2023-02-22T09:55:27;26.50;;;17.60;;
55527;SDS011;52818;43.308;21.916;2023-02-22T09:57:36;22.80;;;16.20;;
55527;SDS011;52818;43.308;21.916;2023-02-22T09:59:27;23.80;;;17.10;;
55527;SDS011;52818;43.308;21.916;2023-02-22T10:01:27;18.90;;;14.10;;
55527;SDS011;52818;43.308;21.916;2023-02-22T10:03:27;50.10;;;33.50;;
55527;SDS011;52818;43.308;21.916;2023-02-22T10:05:28;25.70;;;18.60;;
55527;SDS011;52818;43.308;21.916;2023-02-22T10:07:28;31.30;;;21.10;;
55527;SDS011;52818;43.308;21.916;2023-02-22T10:09:28;20.70;;;15.70;;
55527;SDS011;52818;43.308;21.916;2023-02-22T10:11:32;21.00;;;15.60;;
55527;SDS011;52818;43.308;21.916;2023-02-22T10:13:27;19.10;;;14.30;;
55527;SDS011;52818;43.308;21.916;2023-02-22T10:15:34;18.60;;;13.30;;
55527;SDS011;52818;43.308;21.916;2023-02-22T10:17:28;17.50;;;12.70;;
55527;SDS011;52818;43.308;21.916;2023-02-22T10:19:30;15.50;;;11.50;;
55527;SDS011;52818;43.308;21.916;2023-02-22T10:21:40;16.10;;;12.20;;
55527;SDS011;52818;43.308;21.916;2023-02-22T10:23:37;14.50;;;11.90;;
55527;SDS011;52818;43.308;21.916;2023-02-22T10:27:35;14.90;;;11.40;;
55527;SDS011;52818;43.308;21.916;2023-02-22T10:29:29;;;;10.70;;
55527;SDS011;52818;43.308;21.916;2023-02-22T10:31:29;14.70;;;10.50;;
55527;SDS011;52818;43.308;21.916;2023-02-22T10:35:28;16.60;;;11.50;;
55527;SDS011;52818;43.308;21.916;2023-02-22T10:37:31;15.50;;;11.30;;
55527;SDS011;52818;43.308;21.916;2023-02-22T10:39:29;15.20;;;11.90;;
55527;SDS011;52818;43.308;21.916;2023-02-22T10:41:32;15.40;;;12.10;;
55527;SDS011;52818;43.308;21.916;2023-02-22T10:45:38;18.10;;;12.00;;
55527;SDS011;52818;43.308;21.916;2023-02-22T10:47:28;13.80;;;11.10;;
55527;SDS011;52818;43.308;21.916;2023-02-22T10:51:32;15.80;;;11.80;;
55527;SDS011;52818;43.308;21.916;2023-02-22T10:53:29;16.40;;;12.70;;
55527;SDS011;52818;43.308;21.916;2023-02-22T10:55:35;16.20;;;12.80;;
55527;SDS011;52818;43.308;21.916;2023-02-22T10:57:34;17.90;;;13.10;;
55527;SDS011;52818;43.308;21.916;2023-02-22T10:59:37;;;;13.60;;
55527;SDS011;52818;43.308;21.916;2023-02-22T11:01:34;18.60;;;13.30;;
55527;SDS011;52818;43.308;21.916;2023-02-22T11:03:34;15.40;;;11.90;;
55527;SDS011;52818;43.308;21.916;2023-02-22T11:09:44;18.90;;;13.70;;
55527;SDS011;52818;43.308;21.916;2023-02-22T11:11:39;16.80;;;12.90;;
55527;SDS011;52818;43.308;21.916;2023-02-22T11:15:36;18.20;;;13.80;;
55527;SDS011;52818;43.308;21.916;2023-02-22T11:17:34;16.30;;;12.10;;
55527;SDS011;52818;43.308;21.916;2023-02-22T11:19:34;16.60;;;13.50;;
55527;SDS011;52818;43.308;21.916;2023-02-22T11:23:40;15.60;;;11.90;;
55527;SDS011;52818;43.308;21.916;2023-02-22T11:27:35;14.10;;;10.60;;
55527;SDS011;52818;43.308;21.916;2023-02-22T11:29:36;13.30;;;9.50;;
55527;SDS011;52818;43.308;21.916;2023-02-22T11:33:34;12.90;;;9.50;;
55527;SDS011;52818;43.308;21.916;2023-02-22T11:37:35;11.80;;;9.40;;
55527;SDS011;52818;43.308;21.916;2023-02-22T11:39:39;12.80;;;9.50;;
55527;SDS011;52818;43.308;21.916;2023-02-22T11:41:33;12.00;;;9.10;;
55527;SDS011;52818;43.308;21.916;2023-02-22T11:43:35;10.60;;;8.70;;
55527;SDS011;52818;43.308;21.916;2023-02-22T11:45:35;11.80;;;8.60;;
55527;SDS011;52818;43.308;21.916;2023-02-22T11:47:31;12.30;;;8.80;;
55527;SDS011;52818;43.308;21.916;2023-02-22T11:49:36;12.50;;;9.00;;
55527;SDS011;52818;43.308;21.916;2023-02-22T11:51:33;9.10;;;7.10;;
55527;SDS011;52818;43.308;21.916;2023-02-22T11:53:37;11.10;;;7.40;;
55527;SDS011;52818;43.308;21.916;2023-02-22T11:55:32;11.50;;;8.10;;
55527;SDS011;52818;43.308;21.916;2023-02-22T11:57:39;11.00;;;8.90;;
55527;SDS011;52818;43.308;21.916;2023-02-22T11:59:33;14.10;;;10.30;;
55527;SDS011;52818;43.308;21.916;2023-02-22T12:01:41;9.30;;;7.20;;
55527;SDS011;52818;43.308;21.916;2023-02-22T12:03:36;8.60;;;6.70;;
55527;SDS011;52818;43.308;21.916;2023-02-22T12:05:39;9.60;;;6.50;;
55527;SDS011;52818;43.308;21.916;2023-02-22T12:07:38;6.60;;;5.70;;
55527;SDS011;52818;43.308;21.916;2023-02-22T12:10:04;7.20;;;;;
55527;SDS011;52818;43.308;21.916;2023-02-22T12:12:05;9.10;;;5.80;;
55527;SDS011;52818;43.308;21.916;2023-02-22T12:14:06;8.10;;;5.40;;
55527;SDS011;52818;43.308;21.916;2023-02-22T12:16:07;29.90;;;15.00;;
55527;SDS011;52818;43.308;21.916;2023-02-22T12:18:06;15.60;;;8.60;;
55527;SDS011;52818;43.308;21.916;2023-02-22T12:20:04;6.60;;;4.50;;
55527;SDS011;52818;43.308;21.916;2023-02-22T12:22:15;6.40;;;4.40;;
55527;SDS011;52818;43.308;21.916;2023-02-22T12:24:06;7.40;;;4.50;;
55527;SDS011;52818;43.308;21.916;2023-02-22T12:26:10;6.90;;;4.30;;
55527;SDS011;52818;43.308;21.916;2023-02-22T12:28:12;6.20;;;4.70;;
55527;SDS011;52818;43.308;21.916;2023-02-22T12:30:10;5.00;;;4.20;;
55527;SDS011;52818;43.308;21.916;2023-02-22T12:32:06;6.80;;;4.00;;
55527;SDS011;52818;43.308;21.916;2023-02-22T12:38:08;6.70;;;4.40;;
55527;SDS011;52818;43.308;21.916;2023-02-22T12:40:12;4.80;;;3.60;;
55527;SDS011;52818;43.308;21.916;2023-02-22T12:42:11;7.80;;;4.70;;
55527;SDS011;52818;43.308;21.916;2023-02-22T12:44:13;9.50;;;7.80;;
55527;SDS011;52818;43.308;21.916;2023-02-22T12:46:09;17.30;;;13.70;;
55527;SDS011;52818;43.308;21.916;2023-02-22T12:48:18;31.30;;;24.80;;
55527;SDS011;52818;43.308;21.916;2023-02-22T12:50:09;10.40;;;7.90;;
55527;SDS011;52818;43.308;21.916;2023-02-22T12:52:09;9.60;;;7.10;;
55527;SDS011;52818;43.308;21.916;2023-02-22T12:54:10;7.60;;;5.60;;
55527;SDS011;52818;43.308;21.916;2023-02-22T12:56:14;14.20;;;9.90;;
55527;SDS011;52818;43.308;21.916;2023-02-22T12:58:12;8.90;;;6.40;;
55527;SDS011;52818;43.308;21.916;2023-02-22T13:00:06;5.30;;;4.10;;
55527;SDS011;52818;43.308;21.916;2023-02-22T13:02:09;9.60;;;6.00;;
55527;SDS011;52818;43.308;21.916;2023-02-22T13:04:13;7.70;;;6.10;;
55527;SDS011;52818;43.308;21.916;2023-02-22T13:06:12;17.60;;;13.40;;
55527;SDS011;52818;43.308;21.916;2023-02-22T13:08:12;7.90;;;6.60;;
55527;SDS011;52818;43.308;21.916;2023-02-22T13:10:17;6.00;;;4.70;;
55527;SDS011;52818;43.308;21.916;2023-02-22T13:12:12;7.40;;;5.80;;
55527;SDS011;52818;43.308;21.916;2023-02-22T13:14:14;;;;5.00;;
55527;SDS011;52818;43.308;21.916;2023-02-22T13:16:09;6.90;;;4.70;;